sensor_id;sensor_type;location;lat;lon;timestamp;temperature;humidity
29775;DHT22;16676;51.202;6.774;2023-09-19T00:02:23;26.20;56.80
29775;DHT22;16676;51.202;6.774;2023-09-19T00:06:24;26.20;56.80
29775;DHT22;16676;51.202;6.774;2023-09-19T00:10:28;26.20;56.80
29775;DHT22;16676;51.202;6.774;2023-09-19T00:14:32;26.10;56.70
29775;DHT22;16676;51.202;6.774;2023-09-19T00:18:38;26.10;57.30
29775;DHT22;16676;51.202;6.774;2023-09-19T00:22:40;26.10;56.90
29775;DHT22;16676;51.202;6.774;2023-09-19T00:26:43;26.10;56.50
29775;DHT22;16676;51.202;6.774;2023-09-19T00:30:47;26.00;56.60
29775;DHT22;16676;51.202;6.774;2023-09-19T00:34:53;26.00;56.60
29775;DHT22;16676;51.202;6.774;2023-09-19T00:38:55;26.00;56.60
29775;DHT22;16676;51.202;6.774;2023-09-19T00:42:58;26.00;56.60
29775;DHT22;16676;51.202;6.774;2023-09-19T00:47:01;26.00;56.60
29775;DHT22;16676;51.202;6.774;2023-09-19T00:51:04;26.00;56.80
29775;DHT22;16676;51.202;6.774;2023-09-19T00:55:08;26.00;56.40
29775;DHT22;16676;51.202;6.774;2023-09-19T00:59:10;26.00;56.90
29775;DHT22;16676;51.202;6.774;2023-09-19T01:03:12;26.00;56.60
29775;DHT22;16676;51.202;6.774;2023-09-19T01:07:16;26.00;56.50
29775;DHT22;16676;51.202;6.774;2023-09-19T01:11:25;26.00;56.60
29775;DHT22;16676;51.202;6.774;2023-09-19T01:15:40;26.00;56.90
29775;DHT22;16676;51.202;6.774;2023-09-19T01:20:19;26.00;56.70
29775;DHT22;16676;51.202;6.774;2023-09-19T01:24:52;26.00;56.60
29775;DHT22;16676;51.202;6.774;2023-09-19T01:29:08;25.90;56.30
29775;DHT22;16676;51.202;6.774;2023-09-19T01:33:16;25.80;56.50
29775;DHT22;16676;51.202;6.774;2023-09-19T01:37:20;25.80;56.50
29775;DHT22;16676;51.202;6.774;2023-09-19T01:41:45;25.90;56.70
29775;DHT22;16676;51.202;6.774;2023-09-19T01:45:55;25.90;56.30
29775;DHT22;16676;51.202;6.774;2023-09-19T01:50:13;25.90;56.50
29775;DHT22;16676;51.202;6.774;2023-09-19T01:54:23;25.90;56.60
29775;DHT22;16676;51.202;6.774;2023-09-19T01:58:32;25.90;56.50
29775;DHT22;16676;51.202;6.774;2023-09-19T02:02:37;25.90;56.40
29775;DHT22;16676;51.202;6.774;2023-09-19T02:06:41;25.80;56.40
29775;DHT22;16676;51.202;6.774;2023-09-19T02:10:48;25.80;56.30
29775;DHT22;16676;51.202;6.774;2023-09-19T02:14:50;25.80;56.40
29775;DHT22;16676;51.202;6.774;2023-09-19T02:18:52;25.80;56.40
29775;DHT22;16676;51.202;6.774;2023-09-19T02:22:55;25.80;56.40
29775;DHT22;16676;51.202;6.774;2023-09-19T02:26:57;25.80;56.40
29775;DHT22;16676;51.202;6.774;2023-09-19T02:31:00;25.70;56.10
29775;DHT22;16676;51.202;6.774;2023-09-19T02:35:02;25.70;56.10
29775;DHT22;16676;51.202;6.774;2023-09-19T02:39:06;25.70;56.40
29775;DHT22;16676;51.202;6.774;2023-09-19T02:43:09;25.70;55.90
29775;DHT22;16676;51.202;6.774;2023-09-19T02:47:11;25.70;56.00
29775;DHT22;16676;51.202;6.774;2023-09-19T02:51:13;25.70;56.10
29775;DHT22;16676;51.202;6.774;2023-09-19T02:55:17;25.70;55.90
29775;DHT22;16676;51.202;6.774;2023-09-19T02:59:20;25.70;56.00
29775;DHT22;16676;51.202;6.774;2023-09-19T03:03:22;25.70;55.70
29775;DHT22;16676;51.202;6.774;2023-09-19T03:07:24;25.60;55.70
29775;DHT22;16676;51.202;6.774;2023-09-19T03:11:27;25.70;55.80
29775;DHT22;16676;51.202;6.774;2023-09-19T03:15:29;25.70;56.00
29775;DHT22;16676;51.202;6.774;2023-09-19T03:19:31;25.70;55.80
29775;DHT22;16676;51.202;6.774;2023-09-19T03:23:34;25.70;56.20
29775;DHT22;16676;51.202;6.774;2023-09-19T03:27:37;25.60;55.70
29775;DHT22;16676;51.202;6.774;2023-09-19T03:31:39;25.60;56.00
29775;DHT22;16676;51.202;6.774;2023-09-19T03:35:42;25.60;55.70
29775;DHT22;16676;51.202;6.774;2023-09-19T03:39:45;25.60;55.50
29775;DHT22;16676;51.202;6.774;2023-09-19T03:43:48;25.60;55.60
29775;DHT22;16676;51.202;6.774;2023-09-19T03:47:50;25.60;55.70
29775;DHT22;16676;51.202;6.774;2023-09-19T03:51:52;25.60;55.70
29775;DHT22;16676;51.202;6.774;2023-09-19T03:55:54;25.60;55.70
29775;DHT22;16676;51.202;6.774;2023-09-19T03:59:57;25.60;55.60
29775;DHT22;16676;51.202;6.774;2023-09-19T04:03:59;25.60;56.00
29775;DHT22;16676;51.202;6.774;2023-09-19T04:08:08;25.60;55.90
29775;DHT22;16676;51.202;6.774;2023-09-19T04:12:10;25.60;55.90
29775;DHT22;16676;51.202;6.774;2023-09-19T04:16:14;25.60;55.90
29775;DHT22;16676;51.202;6.774;2023-09-19T04:20:16;25.60;55.70
29775;DHT22;16676;51.202;6.774;2023-09-19T04:24:19;25.60;55.50
29775;DHT22;16676;51.202;6.774;2023-09-19T04:28:21;25.40;54.40
29775;DHT22;16676;51.202;6.774;2023-09-19T04:32:28;25.00;53.80
29775;DHT22;16676;51.202;6.774;2023-09-19T04:36:30;24.80;54.30
29775;DHT22;16676;51.202;6.774;2023-09-19T04:40:32;24.60;53.90
29775;DHT22;16676;51.202;6.774;2023-09-19T04:44:34;24.30;53.90
29775;DHT22;16676;51.202;6.774;2023-09-19T04:48:38;24.20;53.80
29775;DHT22;16676;51.202;6.774;2023-09-19T04:52:41;24.10;53.80
29775;DHT22;16676;51.202;6.774;2023-09-19T04:56:45;24.00;53.60
29775;DHT22;16676;51.202;6.774;2023-09-19T05:00:46;23.90;53.80
29775;DHT22;16676;51.202;6.774;2023-09-19T05:04:50;23.90;53.80
29775;DHT22;16676;51.202;6.774;2023-09-19T05:08:53;23.80;53.50
29775;DHT22;16676;51.202;6.774;2023-09-19T05:12:55;23.70;53.90
29775;DHT22;16676;51.202;6.774;2023-09-19T05:16:57;23.60;53.50
29775;DHT22;16676;51.202;6.774;2023-09-19T05:21:03;23.50;53.40
29775;DHT22;16676;51.202;6.774;2023-09-19T05:25:06;23.60;54.10
29775;DHT22;16676;51.202;6.774;2023-09-19T05:29:08;23.60;54.30
29775;DHT22;16676;51.202;6.774;2023-09-19T05:33:10;23.50;53.50
29775;DHT22;16676;51.202;6.774;2023-09-19T05:37:14;23.60;53.80
29775;DHT22;16676;51.202;6.774;2023-09-19T05:41:16;23.50;53.50
29775;DHT22;16676;51.202;6.774;2023-09-19T05:45:18;23.50;53.80
29775;DHT22;16676;51.202;6.774;2023-09-19T05:49:23;23.50;53.80
29775;DHT22;16676;51.202;6.774;2023-09-19T05:53:26;23.50;53.80
29775;DHT22;16676;51.202;6.774;2023-09-19T05:57:29;23.40;53.50
29775;DHT22;16676;51.202;6.774;2023-09-19T06:01:31;23.30;53.70
29775;DHT22;16676;51.202;6.774;2023-09-19T06:05:35;23.40;53.90
29775;DHT22;16676;51.202;6.774;2023-09-19T06:09:38;23.30;54.00
29775;DHT22;16676;51.202;6.774;2023-09-19T06:13:40;23.30;53.80
29775;DHT22;16676;51.202;6.774;2023-09-19T06:17:42;23.20;53.70
29775;DHT22;16676;51.202;6.774;2023-09-19T06:21:44;23.10;54.20
29775;DHT22;16676;51.202;6.774;2023-09-19T06:25:48;23.10;54.50
29775;DHT22;16676;51.202;6.774;2023-09-19T06:29:50;23.10;54.30
29775;DHT22;16676;51.202;6.774;2023-09-19T06:33:52;23.10;54.50
29775;DHT22;16676;51.202;6.774;2023-09-19T06:37:54;23.00;54.40
29775;DHT22;16676;51.202;6.774;2023-09-19T06:41:59;23.10;54.60
29775;DHT22;16676;51.202;6.774;2023-09-19T06:46:02;23.00;54.70
29775;DHT22;16676;51.202;6.774;2023-09-19T06:50:05;22.90;55.00
29775;DHT22;16676;51.202;6.774;2023-09-19T06:54:13;22.80;54.90
29775;DHT22;16676;51.202;6.774;2023-09-19T06:58:16;22.80;55.10
29775;DHT22;16676;51.202;6.774;2023-09-19T07:02:19;22.80;55.20
29775;DHT22;16676;51.202;6.774;2023-09-19T07:06:22;22.70;55.40
29775;DHT22;16676;51.202;6.774;2023-09-19T07:10:25;22.70;55.50
29775;DHT22;16676;51.202;6.774;2023-09-19T07:14:29;22.70;55.50
29775;DHT22;16676;51.202;6.774;2023-09-19T07:18:31;22.70;55.50
29775;DHT22;16676;51.202;6.774;2023-09-19T07:22:33;22.80;55.60
29775;DHT22;16676;51.202;6.774;2023-09-19T07:26:35;22.70;55.60
29775;DHT22;16676;51.202;6.774;2023-09-19T07:30:38;22.70;55.70
29775;DHT22;16676;51.202;6.774;2023-09-19T07:34:42;22.60;55.70
29775;DHT22;16676;51.202;6.774;2023-09-19T07:38:45;22.70;55.80
29775;DHT22;16676;51.202;6.774;2023-09-19T07:42:47;22.70;56.00
29775;DHT22;16676;51.202;6.774;2023-09-19T07:46:51;22.70;56.20
29775;DHT22;16676;51.202;6.774;2023-09-19T07:50:52;22.80;56.00
29775;DHT22;16676;51.202;6.774;2023-09-19T07:54:55;22.70;56.00
29775;DHT22;16676;51.202;6.774;2023-09-19T07:58:58;22.60;56.10
29775;DHT22;16676;51.202;6.774;2023-09-19T08:03:01;22.60;56.20
29775;DHT22;16676;51.202;6.774;2023-09-19T08:07:04;22.60;56.40
29775;DHT22;16676;51.202;6.774;2023-09-19T08:11:07;22.70;56.30
29775;DHT22;16676;51.202;6.774;2023-09-19T08:15:12;22.70;56.20
29775;DHT22;16676;51.202;6.774;2023-09-19T08:19:16;22.70;56.20
29775;DHT22;16676;51.202;6.774;2023-09-19T08:23:18;22.70;56.00
29775;DHT22;16676;51.202;6.774;2023-09-19T08:27:21;22.80;56.10
29775;DHT22;16676;51.202;6.774;2023-09-19T08:31:27;22.70;56.10
29775;DHT22;16676;51.202;6.774;2023-09-19T08:35:31;22.80;56.00
29775;DHT22;16676;51.202;6.774;2023-09-19T08:39:33;22.80;56.00
29775;DHT22;16676;51.202;6.774;2023-09-19T08:43:37;22.60;56.00
29775;DHT22;16676;51.202;6.774;2023-09-19T08:47:46;22.70;56.10
29775;DHT22;16676;51.202;6.774;2023-09-19T08:51:53;22.80;55.90
29775;DHT22;16676;51.202;6.774;2023-09-19T08:55:56;22.80;55.90
29775;DHT22;16676;51.202;6.774;2023-09-19T08:59:59;22.80;55.70
29775;DHT22;16676;51.202;6.774;2023-09-19T09:04:03;23.00;55.80
29775;DHT22;16676;51.202;6.774;2023-09-19T09:08:07;23.00;55.50
29775;DHT22;16676;51.202;6.774;2023-09-19T09:12:11;23.00;55.40
29775;DHT22;16676;51.202;6.774;2023-09-19T09:16:14;23.00;55.30
29775;DHT22;16676;51.202;6.774;2023-09-19T09:20:19;23.10;55.10
29775;DHT22;16676;51.202;6.774;2023-09-19T09:24:30;23.10;54.80
29775;DHT22;16676;51.202;6.774;2023-09-19T09:28:34;23.10;54.60
29775;DHT22;16676;51.202;6.774;2023-09-19T09:32:39;23.00;54.50
29775;DHT22;16676;51.202;6.774;2023-09-19T09:36:41;23.00;54.70
29775;DHT22;16676;51.202;6.774;2023-09-19T09:40:49;22.90;54.50
29775;DHT22;16676;51.202;6.774;2023-09-19T09:45:12;23.00;54.70
29775;DHT22;16676;51.202;6.774;2023-09-19T09:49:22;23.00;54.30
29775;DHT22;16676;51.202;6.774;2023-09-19T09:53:29;22.90;54.70
29775;DHT22;16676;51.202;6.774;2023-09-19T09:57:34;23.00;54.70
29775;DHT22;16676;51.202;6.774;2023-09-19T10:01:46;23.00;54.40
29775;DHT22;16676;51.202;6.774;2023-09-19T10:05:53;23.00;54.40
29775;DHT22;16676;51.202;6.774;2023-09-19T10:09:56;22.90;54.00
29775;DHT22;16676;51.202;6.774;2023-09-19T10:14:06;23.00;53.90
29775;DHT22;16676;51.202;6.774;2023-09-19T10:18:11;23.00;53.50
29775;DHT22;16676;51.202;6.774;2023-09-19T10:22:19;23.00;53.50
29775;DHT22;16676;51.202;6.774;2023-09-19T10:26:23;23.00;53.70
29775;DHT22;16676;51.202;6.774;2023-09-19T10:30:28;23.10;53.80
29775;DHT22;16676;51.202;6.774;2023-09-19T10:34:33;23.10;53.60
29775;DHT22;16676;51.202;6.774;2023-09-19T10:38:37;23.10;54.20
29775;DHT22;16676;51.202;6.774;2023-09-19T10:42:42;23.10;53.50
29775;DHT22;16676;51.202;6.774;2023-09-19T10:46:48;23.10;53.30
29775;DHT22;16676;51.202;6.774;2023-09-19T10:50:58;23.10;53.10
29775;DHT22;16676;51.202;6.774;2023-09-19T10:55:06;23.20;53.10
29775;DHT22;16676;51.202;6.774;2023-09-19T10:59:11;23.20;52.80
29775;DHT22;16676;51.202;6.774;2023-09-19T11:03:18;23.20;52.70
29775;DHT22;16676;51.202;6.774;2023-09-19T11:07:22;23.20;52.40
29775;DHT22;16676;51.202;6.774;2023-09-19T11:11:46;23.20;52.20
29775;DHT22;16676;51.202;6.774;2023-09-19T11:16:17;23.30;52.50
29775;DHT22;16676;51.202;6.774;2023-09-19T11:20:22;23.30;52.50
29775;DHT22;16676;51.202;6.774;2023-09-19T11:24:41;23.30;52.20
29775;DHT22;16676;51.202;6.774;2023-09-19T11:28:43;23.40;52.00
29775;DHT22;16676;51.202;6.774;2023-09-19T11:33:15;23.40;52.00
29775;DHT22;16676;51.202;6.774;2023-09-19T11:42:45;23.60;51.40
29775;DHT22;16676;51.202;6.774;2023-09-19T11:46:55;23.60;51.10
29775;DHT22;16676;51.202;6.774;2023-09-19T11:51:00;23.60;50.40
29775;DHT22;16676;51.202;6.774;2023-09-19T11:55:08;23.60;50.60
29775;DHT22;16676;51.202;6.774;2023-09-19T11:59:19;23.40;49.50
29775;DHT22;16676;51.202;6.774;2023-09-19T12:03:24;23.40;49.70
29775;DHT22;16676;51.202;6.774;2023-09-19T12:07:42;23.40;49.70
29775;DHT22;16676;51.202;6.774;2023-09-19T12:11:45;23.50;49.40
29775;DHT22;16676;51.202;6.774;2023-09-19T12:15:48;23.50;49.10
29775;DHT22;16676;51.202;6.774;2023-09-19T12:19:50;23.40;48.70
29775;DHT22;16676;51.202;6.774;2023-09-19T12:23:58;23.50;48.60
29775;DHT22;16676;51.202;6.774;2023-09-19T12:28:00;23.50;48.30
29775;DHT22;16676;51.202;6.774;2023-09-19T12:32:05;23.60;49.00
29775;DHT22;16676;51.202;6.774;2023-09-19T12:36:20;23.60;48.80
29775;DHT22;16676;51.202;6.774;2023-09-19T12:40:26;23.60;48.40
29775;DHT22;16676;51.202;6.774;2023-09-19T12:44:29;23.50;48.40
29775;DHT22;16676;51.202;6.774;2023-09-19T12:48:32;23.40;48.70
29775;DHT22;16676;51.202;6.774;2023-09-19T12:52:36;23.50;48.40
29775;DHT22;16676;51.202;6.774;2023-09-19T12:56:42;23.60;48.30
29775;DHT22;16676;51.202;6.774;2023-09-19T13:00:46;23.60;47.90
29775;DHT22;16676;51.202;6.774;2023-09-19T13:04:53;23.70;48.10
29775;DHT22;16676;51.202;6.774;2023-09-19T13:09:08;23.60;47.80
29775;DHT22;16676;51.202;6.774;2023-09-19T13:13:23;23.60;47.90
29775;DHT22;16676;51.202;6.774;2023-09-19T13:17:43;23.60;47.80
29775;DHT22;16676;51.202;6.774;2023-09-19T13:21:47;23.40;48.20
29775;DHT22;16676;51.202;6.774;2023-09-19T13:25:51;23.60;48.70
29775;DHT22;16676;51.202;6.774;2023-09-19T13:29:53;23.60;48.70
29775;DHT22;16676;51.202;6.774;2023-09-19T13:33:55;23.70;48.80
29775;DHT22;16676;51.202;6.774;2023-09-19T13:37:59;23.60;48.60
29775;DHT22;16676;51.202;6.774;2023-09-19T13:42:01;23.60;48.50
29775;DHT22;16676;51.202;6.774;2023-09-19T13:46:04;23.70;48.80
29775;DHT22;16676;51.202;6.774;2023-09-19T13:50:07;23.60;48.90
29775;DHT22;16676;51.202;6.774;2023-09-19T13:54:10;23.60;49.20
29775;DHT22;16676;51.202;6.774;2023-09-19T13:58:13;23.50;48.90
29775;DHT22;16676;51.202;6.774;2023-09-19T14:02:15;23.50;49.80
29775;DHT22;16676;51.202;6.774;2023-09-19T14:06:18;23.60;49.70
29775;DHT22;16676;51.202;6.774;2023-09-19T14:10:22;23.60;49.70
29775;DHT22;16676;51.202;6.774;2023-09-19T14:14:24;23.60;49.70
29775;DHT22;16676;51.202;6.774;2023-09-19T14:18:26;23.40;50.00
29775;DHT22;16676;51.202;6.774;2023-09-19T14:22:28;23.40;49.90
29775;DHT22;16676;51.202;6.774;2023-09-19T14:26:31;23.40;49.90
29775;DHT22;16676;51.202;6.774;2023-09-19T14:30:33;23.40;50.10
29775;DHT22;16676;51.202;6.774;2023-09-19T14:34:35;23.50;50.30
29775;DHT22;16676;51.202;6.774;2023-09-19T14:38:42;23.50;50.40
29775;DHT22;16676;51.202;6.774;2023-09-19T14:42:46;23.40;50.60
29775;DHT22;16676;51.202;6.774;2023-09-19T14:46:48;23.50;50.70
29775;DHT22;16676;51.202;6.774;2023-09-19T14:50:50;23.60;50.70
29775;DHT22;16676;51.202;6.774;2023-09-19T14:54:52;23.50;50.70
29775;DHT22;16676;51.202;6.774;2023-09-19T14:58:56;23.40;50.90
29775;DHT22;16676;51.202;6.774;2023-09-19T15:02:58;23.50;50.80
29775;DHT22;16676;51.202;6.774;2023-09-19T15:07:00;23.30;50.70
29775;DHT22;16676;51.202;6.774;2023-09-19T15:11:03;23.40;50.80
29775;DHT22;16676;51.202;6.774;2023-09-19T15:15:08;23.40;50.80
29775;DHT22;16676;51.202;6.774;2023-09-19T15:19:10;23.40;50.70
29775;DHT22;16676;51.202;6.774;2023-09-19T15:23:12;23.40;50.80
29775;DHT22;16676;51.202;6.774;2023-09-19T15:27:14;23.30;50.80
29775;DHT22;16676;51.202;6.774;2023-09-19T15:31:19;23.40;50.90
29775;DHT22;16676;51.202;6.774;2023-09-19T15:35:21;23.30;51.00
29775;DHT22;16676;51.202;6.774;2023-09-19T15:39:23;23.30;51.30
29775;DHT22;16676;51.202;6.774;2023-09-19T15:43:25;23.30;51.20
29775;DHT22;16676;51.202;6.774;2023-09-19T15:47:28;23.20;51.80
29775;DHT22;16676;51.202;6.774;2023-09-19T15:51:31;23.20;51.50
29775;DHT22;16676;51.202;6.774;2023-09-19T15:55:38;23.20;51.70
29775;DHT22;16676;51.202;6.774;2023-09-19T15:59:41;23.20;51.70
29775;DHT22;16676;51.202;6.774;2023-09-19T16:03:46;23.20;51.60
29775;DHT22;16676;51.202;6.774;2023-09-19T16:07:48;23.10;51.70
29775;DHT22;16676;51.202;6.774;2023-09-19T16:11:50;23.20;52.00
29775;DHT22;16676;51.202;6.774;2023-09-19T16:15:52;23.20;52.10
29775;DHT22;16676;51.202;6.774;2023-09-19T16:19:55;23.30;52.10
29775;DHT22;16676;51.202;6.774;2023-09-19T16:23:58;23.10;52.10
29775;DHT22;16676;51.202;6.774;2023-09-19T16:28:01;23.20;52.10
29775;DHT22;16676;51.202;6.774;2023-09-19T16:32:04;23.20;52.20
29775;DHT22;16676;51.202;6.774;2023-09-19T16:36:08;23.10;52.20
29775;DHT22;16676;51.202;6.774;2023-09-19T16:40:11;23.10;52.50
29775;DHT22;16676;51.202;6.774;2023-09-19T16:44:13;23.10;52.50
29775;DHT22;16676;51.202;6.774;2023-09-19T16:48:15;23.10;52.70
29775;DHT22;16676;51.202;6.774;2023-09-19T16:52:18;23.10;52.80
29775;DHT22;16676;51.202;6.774;2023-09-19T16:56:20;23.10;52.90
29775;DHT22;16676;51.202;6.774;2023-09-19T17:00:22;23.10;52.80
29775;DHT22;16676;51.202;6.774;2023-09-19T17:04:26;23.10;52.80
29775;DHT22;16676;51.202;6.774;2023-09-19T17:08:31;23.10;52.90
29775;DHT22;16676;51.202;6.774;2023-09-19T17:12:34;23.10;52.80
29775;DHT22;16676;51.202;6.774;2023-09-19T17:16:36;23.10;52.80
29775;DHT22;16676;51.202;6.774;2023-09-19T17:20:41;23.00;52.90
29775;DHT22;16676;51.202;6.774;2023-09-19T17:24:44;23.00;52.80
29775;DHT22;16676;51.202;6.774;2023-09-19T17:28:48;23.00;52.70
29775;DHT22;16676;51.202;6.774;2023-09-19T17:32:50;23.00;52.90
29775;DHT22;16676;51.202;6.774;2023-09-19T17:36:52;23.00;52.90
29775;DHT22;16676;51.202;6.774;2023-09-19T17:41:00;23.00;52.80
29775;DHT22;16676;51.202;6.774;2023-09-19T17:45:04;23.00;53.00
29775;DHT22;16676;51.202;6.774;2023-09-19T17:49:06;22.90;53.10
29775;DHT22;16676;51.202;6.774;2023-09-19T17:53:08;22.90;53.10
29775;DHT22;16676;51.202;6.774;2023-09-19T17:57:12;22.80;53.10
29775;DHT22;16676;51.202;6.774;2023-09-19T18:01:15;22.90;53.10
29775;DHT22;16676;51.202;6.774;2023-09-19T18:05:18;22.80;53.10
29775;DHT22;16676;51.202;6.774;2023-09-19T18:09:22;22.90;53.10
29775;DHT22;16676;51.202;6.774;2023-09-19T18:13:25;22.90;53.10
29775;DHT22;16676;51.202;6.774;2023-09-19T18:17:27;22.80;53.00
29775;DHT22;16676;51.202;6.774;2023-09-19T18:21:29;22.80;53.00
29775;DHT22;16676;51.202;6.774;2023-09-19T18:25:32;22.80;53.10
29775;DHT22;16676;51.202;6.774;2023-09-19T18:29:35;22.80;53.20
29775;DHT22;16676;51.202;6.774;2023-09-19T18:33:38;22.80;53.20
29775;DHT22;16676;51.202;6.774;2023-09-19T18:37:40;22.90;53.20
29775;DHT22;16676;51.202;6.774;2023-09-19T18:41:42;22.80;53.30
29775;DHT22;16676;51.202;6.774;2023-09-19T18:45:55;22.70;53.40
29775;DHT22;16676;51.202;6.774;2023-09-19T18:49:58;22.80;53.50
29775;DHT22;16676;51.202;6.774;2023-09-19T18:54:00;22.80;53.40
29775;DHT22;16676;51.202;6.774;2023-09-19T18:58:02;22.80;53.50
29775;DHT22;16676;51.202;6.774;2023-09-19T19:02:06;22.80;53.60
29775;DHT22;16676;51.202;6.774;2023-09-19T19:06:12;22.70;53.60
29775;DHT22;16676;51.202;6.774;2023-09-19T19:10:16;22.70;53.70
29775;DHT22;16676;51.202;6.774;2023-09-19T19:14:20;22.60;53.70
29775;DHT22;16676;51.202;6.774;2023-09-19T19:18:23;22.60;53.90
29775;DHT22;16676;51.202;6.774;2023-09-19T19:22:29;22.50;54.10
29775;DHT22;16676;51.202;6.774;2023-09-19T19:26:32;22.60;54.10
29775;DHT22;16676;51.202;6.774;2023-09-19T19:30:34;22.50;54.70
29775;DHT22;16676;51.202;6.774;2023-09-19T19:34:38;22.50;54.10
29775;DHT22;16676;51.202;6.774;2023-09-19T19:38:40;22.50;54.30
29775;DHT22;16676;51.202;6.774;2023-09-19T19:42:46;22.50;54.50
29775;DHT22;16676;51.202;6.774;2023-09-19T19:46:48;22.50;54.60
29775;DHT22;16676;51.202;6.774;2023-09-19T19:50:52;22.50;54.70
29775;DHT22;16676;51.202;6.774;2023-09-19T19:54:55;22.40;54.70
29775;DHT22;16676;51.202;6.774;2023-09-19T19:58:57;22.50;54.80
29775;DHT22;16676;51.202;6.774;2023-09-19T20:03:00;22.50;54.70
29775;DHT22;16676;51.202;6.774;2023-09-19T20:07:03;22.40;54.90
29775;DHT22;16676;51.202;6.774;2023-09-19T20:11:06;22.50;54.80
29775;DHT22;16676;51.202;6.774;2023-09-19T20:15:10;22.50;54.80
29775;DHT22;16676;51.202;6.774;2023-09-19T20:19:12;22.50;54.80
29775;DHT22;16676;51.202;6.774;2023-09-19T20:23:16;22.50;55.00
29775;DHT22;16676;51.202;6.774;2023-09-19T20:27:18;22.50;55.20
29775;DHT22;16676;51.202;6.774;2023-09-19T20:31:21;22.50;55.50
29775;DHT22;16676;51.202;6.774;2023-09-19T20:35:23;22.40;55.70
29775;DHT22;16676;51.202;6.774;2023-09-19T20:39:26;22.50;55.70
29775;DHT22;16676;51.202;6.774;2023-09-19T20:43:30;22.50;56.00
29775;DHT22;16676;51.202;6.774;2023-09-19T20:47:34;22.50;55.90
29775;DHT22;16676;51.202;6.774;2023-09-19T20:51:36;22.40;56.00
29775;DHT22;16676;51.202;6.774;2023-09-19T20:55:40;22.40;56.00
29775;DHT22;16676;51.202;6.774;2023-09-19T20:59:43;22.40;56.00
29775;DHT22;16676;51.202;6.774;2023-09-19T21:03:45;22.40;56.70
29775;DHT22;16676;51.202;6.774;2023-09-19T21:07:47;22.40;56.30
29775;DHT22;16676;51.202;6.774;2023-09-19T21:11:51;22.30;56.30
29775;DHT22;16676;51.202;6.774;2023-09-19T21:15:53;22.30;56.40
29775;DHT22;16676;51.202;6.774;2023-09-19T21:19:55;22.40;56.40
29775;DHT22;16676;51.202;6.774;2023-09-19T21:23:57;22.40;56.40
29775;DHT22;16676;51.202;6.774;2023-09-19T21:28:00;22.40;56.40
29775;DHT22;16676;51.202;6.774;2023-09-19T21:32:02;22.40;56.50
29775;DHT22;16676;51.202;6.774;2023-09-19T21:36:05;22.30;56.60
29775;DHT22;16676;51.202;6.774;2023-09-19T21:40:10;22.30;56.60
29775;DHT22;16676;51.202;6.774;2023-09-19T21:44:13;22.30;56.70
29775;DHT22;16676;51.202;6.774;2023-09-19T21:48:15;22.30;56.80
29775;DHT22;16676;51.202;6.774;2023-09-19T21:52:18;22.30;56.90
29775;DHT22;16676;51.202;6.774;2023-09-19T21:56:19;22.30;57.10
29775;DHT22;16676;51.202;6.774;2023-09-19T22:00:23;22.20;57.20
29775;DHT22;16676;51.202;6.774;2023-09-19T22:04:31;22.30;57.20
29775;DHT22;16676;51.202;6.774;2023-09-19T22:08:34;22.30;56.90
29775;DHT22;16676;51.202;6.774;2023-09-19T22:12:36;22.30;57.10
29775;DHT22;16676;51.202;6.774;2023-09-19T22:16:39;22.30;57.20
29775;DHT22;16676;51.202;6.774;2023-09-19T22:20:43;22.30;57.50
29775;DHT22;16676;51.202;6.774;2023-09-19T22:24:51;22.30;57.60
29775;DHT22;16676;51.202;6.774;2023-09-19T22:28:55;22.20;57.60
29775;DHT22;16676;51.202;6.774;2023-09-19T22:32:58;22.20;57.70
29775;DHT22;16676;51.202;6.774;2023-09-19T22:37:01;22.20;58.00
29775;DHT22;16676;51.202;6.774;2023-09-19T22:41:03;22.10;58.00
29775;DHT22;16676;51.202;6.774;2023-09-19T22:45:10;22.10;58.00
29775;DHT22;16676;51.202;6.774;2023-09-19T22:49:14;22.20;58.10
29775;DHT22;16676;51.202;6.774;2023-09-19T22:53:18;22.20;58.20
29775;DHT22;16676;51.202;6.774;2023-09-19T22:57:21;22.10;58.30
29775;DHT22;16676;51.202;6.774;2023-09-19T23:01:24;22.10;58.30
29775;DHT22;16676;51.202;6.774;2023-09-19T23:05:35;22.20;58.30
29775;DHT22;16676;51.202;6.774;2023-09-19T23:09:40;22.10;58.30
29775;DHT22;16676;51.202;6.774;2023-09-19T23:13:43;22.20;58.30
29775;DHT22;16676;51.202;6.774;2023-09-19T23:17:46;22.20;58.40
29775;DHT22;16676;51.202;6.774;2023-09-19T23:21:50;22.20;58.50
29775;DHT22;16676;51.202;6.774;2023-09-19T23:25:55;22.20;58.50
29775;DHT22;16676;51.202;6.774;2023-09-19T23:29:57;22.20;58.40
29775;DHT22;16676;51.202;6.774;2023-09-19T23:33:59;22.20;58.70
29775;DHT22;16676;51.202;6.774;2023-09-19T23:38:05;22.20;58.80
29775;DHT22;16676;51.202;6.774;2023-09-19T23:42:08;22.30;58.80
29775;DHT22;16676;51.202;6.774;2023-09-19T23:46:10;22.20;58.90
29775;DHT22;16676;51.202;6.774;2023-09-19T23:50:12;22.10;59.20
29775;DHT22;16676;51.202;6.774;2023-09-19T23:54:17;22.20;59.10
29775;DHT22;16676;51.202;6.774;2023-09-19T23:58:28;22.20;59.20
